sensor_id;sensor_type;location;lat;lon;timestamp;P1;durP1;ratioP1;P2;durP2;ratioP2
66546;SDS011;53400;50.364;14.874;2022-07-29T00:00:46;1999.90;;;999.90;;
66546;SDS011;53400;50.364;14.874;2022-07-29T00:03:12;1999.90;;;999.90;;
66546;SDS011;53400;50.364;14.874;2022-07-29T00:05:40;1999.90;;;999.90;;
66546;SDS011;53400;50.364;14.874;2022-07-29T00:08:08;1999.90;;;999.90;;
66546;SDS011;53400;50.364;14.874;2022-07-29T00:10:34;1999.90;;;999.90;;
66546;SDS011;53400;50.364;14.874;2022-07-29T00:13:00;1999.90;;;999.90;;
66546;SDS011;53400;50.364;14.874;2022-07-29T00:15:27;1999.90;;;999.90;;
66546;SDS011;53400;50.364;14.874;2022-07-29T00:17:53;1999.90;;;999.90;;
66546;SDS011;53400;50.364;14.874;2022-07-29T00:20:18;1999.90;;;999.90;;
66546;SDS011;53400;50.364;14.874;2022-07-29T00:22:44;1999.90;;;999.90;;
66546;SDS011;53400;50.364;14.874;2022-07-29T00:25:12;1999.90;;;999.90;;
66546;SDS011;53400;50.364;14.874;2022-07-29T00:27:38;1999.90;;;999.90;;
66546;SDS011;53400;50.364;14.874;2022-07-29T00:30:05;1999.90;;;999.90;;
66546;SDS011;53400;50.364;14.874;2022-07-29T00:32:31;1999.90;;;999.90;;
66546;SDS011;53400;50.364;14.874;2022-07-29T00:34:57;1999.90;;;999.90;;
66546;SDS011;53400;50.364;14.874;2022-07-29T00:37:41;1999.90;;;999.90;;
66546;SDS011;53400;50.364;14.874;2022-07-29T00:40:07;1999.90;;;999.90;;
66546;SDS011;53400;50.364;14.874;2022-07-29T00:42:42;1999.90;;;999.90;;
66546;SDS011;53400;50.364;14.874;2022-07-29T00:45:09;1999.90;;;999.90;;
66546;SDS011;53400;50.364;14.874;2022-07-29T00:47:35;1999.90;;;999.90;;
66546;SDS011;53400;50.364;14.874;2022-07-29T00:50:00;1999.90;;;999.90;;
66546;SDS011;53400;50.364;14.874;2022-07-29T00:52:26;1999.90;;;999.90;;
66546;SDS011;53400;50.364;14.874;2022-07-29T00:54:52;1999.90;;;999.90;;
66546;SDS011;53400;50.364;14.874;2022-07-29T00:57:18;1999.90;;;999.90;;
66546;SDS011;53400;50.364;14.874;2022-07-29T00:59:45;1999.90;;;999.90;;
66546;SDS011;53400;50.364;14.874;2022-07-29T01:02:11;1999.90;;;999.90;;
66546;SDS011;53400;50.364;14.874;2022-07-29T01:04:37;1999.90;;;999.90;;
66546;SDS011;53400;50.364;14.874;2022-07-29T01:07:03;1999.90;;;999.90;;
66546;SDS011;53400;50.364;14.874;2022-07-29T01:09:30;1999.90;;;999.90;;
66546;SDS011;53400;50.364;14.874;2022-07-29T01:11:57;1999.90;;;999.90;;
66546;SDS011;53400;50.364;14.874;2022-07-29T01:14:24;1999.90;;;999.90;;
66546;SDS011;53400;50.364;14.874;2022-07-29T01:16:54;1999.90;;;999.90;;
66546;SDS011;53400;50.364;14.874;2022-07-29T01:19:33;1999.90;;;999.90;;
66546;SDS011;53400;50.364;14.874;2022-07-29T01:22:16;1999.90;;;999.90;;
66546;SDS011;53400;50.364;14.874;2022-07-29T01:24:59;1999.90;;;999.90;;
66546;SDS011;53400;50.364;14.874;2022-07-29T01:27:38;1999.90;;;999.90;;
66546;SDS011;53400;50.364;14.874;2022-07-29T01:30:12;1999.90;;;999.90;;
66546;SDS011;53400;50.364;14.874;2022-07-29T01:32:38;1999.90;;;999.90;;
66546;SDS011;53400;50.364;14.874;2022-07-29T01:35:06;1999.90;;;999.90;;
66546;SDS011;53400;50.364;14.874;2022-07-29T01:37:36;1999.90;;;999.90;;
66546;SDS011;53400;50.364;14.874;2022-07-29T01:40:09;1999.90;;;999.90;;
66546;SDS011;53400;50.364;14.874;2022-07-29T01:42:44;1999.90;;;999.90;;
66546;SDS011;53400;50.364;14.874;2022-07-29T01:45:15;1999.90;;;999.90;;
66546;SDS011;53400;50.364;14.874;2022-07-29T01:47:44;1999.90;;;999.90;;
66546;SDS011;53400;50.364;14.874;2022-07-29T01:50:19;1999.90;;;999.90;;
66546;SDS011;53400;50.364;14.874;2022-07-29T01:52:49;1999.90;;;999.90;;
66546;SDS011;53400;50.364;14.874;2022-07-29T01:55:19;1999.90;;;999.90;;
66546;SDS011;53400;50.364;14.874;2022-07-29T01:57:48;1999.90;;;999.90;;
66546;SDS011;53400;50.364;14.874;2022-07-29T02:00:16;1999.90;;;999.90;;
66546;SDS011;53400;50.364;14.874;2022-07-29T02:02:44;1999.90;;;999.90;;
66546;SDS011;53400;50.364;14.874;2022-07-29T02:05:12;1999.90;;;999.90;;
66546;SDS011;53400;50.364;14.874;2022-07-29T02:07:40;1999.90;;;999.90;;
66546;SDS011;53400;50.364;14.874;2022-07-29T02:10:08;1999.90;;;999.90;;
66546;SDS011;53400;50.364;14.874;2022-07-29T02:12:35;1999.90;;;999.90;;
66546;SDS011;53400;50.364;14.874;2022-07-29T02:15:03;1999.90;;;999.90;;
66546;SDS011;53400;50.364;14.874;2022-07-29T02:17:35;1999.90;;;999.90;;
66546;SDS011;53400;50.364;14.874;2022-07-29T02:20:06;1999.90;;;999.90;;
66546;SDS011;53400;50.364;14.874;2022-07-29T02:22:35;1999.90;;;999.90;;
66546;SDS011;53400;50.364;14.874;2022-07-29T02:25:03;1999.90;;;999.90;;
66546;SDS011;53400;50.364;14.874;2022-07-29T02:27:30;1999.90;;;999.90;;
66546;SDS011;53400;50.364;14.874;2022-07-29T02:30:00;1999.90;;;999.90;;
66546;SDS011;53400;50.364;14.874;2022-07-29T02:32:28;1999.90;;;999.90;;
66546;SDS011;53400;50.364;14.874;2022-07-29T02:34:56;1999.90;;;999.90;;
66546;SDS011;53400;50.364;14.874;2022-07-29T02:37:24;1999.90;;;999.90;;
66546;SDS011;53400;50.364;14.874;2022-07-29T02:39:52;1999.90;;;999.90;;
66546;SDS011;53400;50.364;14.874;2022-07-29T02:42:21;1999.90;;;999.90;;
66546;SDS011;53400;50.364;14.874;2022-07-29T02:44:48;1999.90;;;999.90;;
66546;SDS011;53400;50.364;14.874;2022-07-29T02:47:16;1999.90;;;999.90;;
66546;SDS011;53400;50.364;14.874;2022-07-29T02:49:48;1999.90;;;999.90;;
66546;SDS011;53400;50.364;14.874;2022-07-29T02:52:21;1999.90;;;999.90;;
66546;SDS011;53400;50.364;14.874;2022-07-29T02:54:53;1999.90;;;999.90;;
66546;SDS011;53400;50.364;14.874;2022-07-29T02:57:22;1999.90;;;999.90;;
66546;SDS011;53400;50.364;14.874;2022-07-29T02:59:57;1999.90;;;999.90;;
66546;SDS011;53400;50.364;14.874;2022-07-29T03:02:29;1999.90;;;999.90;;
66546;SDS011;53400;50.364;14.874;2022-07-29T03:04:58;1999.90;;;999.90;;
66546;SDS011;53400;50.364;14.874;2022-07-29T03:07:28;1999.90;;;999.90;;
66546;SDS011;53400;50.364;14.874;2022-07-29T03:09:55;1999.90;;;999.90;;
66546;SDS011;53400;50.364;14.874;2022-07-29T03:12:22;1999.90;;;999.90;;
66546;SDS011;53400;50.364;14.874;2022-07-29T03:14:48;1999.90;;;999.90;;
66546;SDS011;53400;50.364;14.874;2022-07-29T03:17:14;1999.90;;;999.90;;
66546;SDS011;53400;50.364;14.874;2022-07-29T03:19:41;1999.90;;;999.90;;
66546;SDS011;53400;50.364;14.874;2022-07-29T03:22:07;1999.90;;;999.90;;
66546;SDS011;53400;50.364;14.874;2022-07-29T03:24:35;1999.90;;;999.90;;
66546;SDS011;53400;50.364;14.874;2022-07-29T03:27:01;1999.90;;;999.90;;
66546;SDS011;53400;50.364;14.874;2022-07-29T03:29:28;1999.90;;;999.90;;
66546;SDS011;53400;50.364;14.874;2022-07-29T03:31:54;1999.90;;;999.90;;
66546;SDS011;53400;50.364;14.874;2022-07-29T03:34:20;1999.90;;;999.90;;
66546;SDS011;53400;50.364;14.874;2022-07-29T03:36:46;1999.90;;;999.90;;
66546;SDS011;53400;50.364;14.874;2022-07-29T03:39:14;1999.90;;;999.90;;
66546;SDS011;53400;50.364;14.874;2022-07-29T03:41:43;1999.90;;;999.90;;
66546;SDS011;53400;50.364;14.874;2022-07-29T03:44:11;1999.90;;;999.90;;
66546;SDS011;53400;50.364;14.874;2022-07-29T03:46:39;1999.90;;;999.90;;
66546;SDS011;53400;50.364;14.874;2022-07-29T03:49:06;1999.90;;;999.90;;
66546;SDS011;53400;50.364;14.874;2022-07-29T03:51:34;1999.90;;;999.90;;
66546;SDS011;53400;50.364;14.874;2022-07-29T03:54:00;1999.90;;;999.90;;
66546;SDS011;53400;50.364;14.874;2022-07-29T03:56:26;1999.90;;;999.90;;
66546;SDS011;53400;50.364;14.874;2022-07-29T03:58:55;1999.90;;;999.90;;
66546;SDS011;53400;50.364;14.874;2022-07-29T04:01:21;1999.90;;;999.90;;
66546;SDS011;53400;50.364;14.874;2022-07-29T04:03:49;1999.90;;;999.90;;
66546;SDS011;53400;50.364;14.874;2022-07-29T04:06:14;1999.90;;;999.90;;
66546;SDS011;53400;50.364;14.874;2022-07-29T04:08:40;1999.90;;;999.90;;
66546;SDS011;53400;50.364;14.874;2022-07-29T04:11:06;1999.90;;;999.90;;
66546;SDS011;53400;50.364;14.874;2022-07-29T04:13:32;1999.90;;;999.90;;
66546;SDS011;53400;50.364;14.874;2022-07-29T04:16:01;1999.90;;;999.90;;
66546;SDS011;53400;50.364;14.874;2022-07-29T04:18:27;1999.90;;;999.90;;
66546;SDS011;53400;50.364;14.874;2022-07-29T04:20:52;1999.90;;;999.90;;
66546;SDS011;53400;50.364;14.874;2022-07-29T04:23:18;1999.90;;;999.90;;
66546;SDS011;53400;50.364;14.874;2022-07-29T04:25:44;1999.90;;;999.90;;
66546;SDS011;53400;50.364;14.874;2022-07-29T04:28:10;1999.90;;;999.90;;
66546;SDS011;53400;50.364;14.874;2022-07-29T04:30:36;1999.90;;;999.90;;
66546;SDS011;53400;50.364;14.874;2022-07-29T04:33:05;1999.90;;;999.90;;
66546;SDS011;53400;50.364;14.874;2022-07-29T04:35:33;1999.90;;;999.90;;
66546;SDS011;53400;50.364;14.874;2022-07-29T04:38:00;1999.90;;;999.90;;
66546;SDS011;53400;50.364;14.874;2022-07-29T04:40:28;1999.90;;;999.90;;
66546;SDS011;53400;50.364;14.874;2022-07-29T04:42:54;1999.90;;;999.90;;
66546;SDS011;53400;50.364;14.874;2022-07-29T04:45:20;1999.90;;;999.90;;
66546;SDS011;53400;50.364;14.874;2022-07-29T04:47:45;1999.90;;;999.90;;
66546;SDS011;53400;50.364;14.874;2022-07-29T04:50:13;1999.90;;;999.90;;
66546;SDS011;53400;50.364;14.874;2022-07-29T04:52:39;1999.90;;;999.90;;
66546;SDS011;53400;50.364;14.874;2022-07-29T04:55:05;1999.90;;;999.90;;
66546;SDS011;53400;50.364;14.874;2022-07-29T04:57:31;1999.90;;;999.90;;
66546;SDS011;53400;50.364;14.874;2022-07-29T04:59:57;1999.90;;;999.90;;
66546;SDS011;53400;50.364;14.874;2022-07-29T05:02:23;1999.90;;;999.90;;
66546;SDS011;53400;50.364;14.874;2022-07-29T05:04:48;1999.90;;;999.90;;
66546;SDS011;53400;50.364;14.874;2022-07-29T05:07:16;42.47;;;39.08;;
66546;SDS011;53400;50.364;14.874;2022-07-29T05:09:42;6.30;;;2.90;;
66546;SDS011;53400;50.364;14.874;2022-07-29T05:12:08;3.92;;;1.98;;
66546;SDS011;53400;50.364;14.874;2022-07-29T05:14:35;4.20;;;1.80;;
66546;SDS011;53400;50.364;14.874;2022-07-29T05:17:00;4.57;;;2.00;;
66546;SDS011;53400;50.364;14.874;2022-07-29T05:19:26;4.18;;;2.03;;
66546;SDS011;53400;50.364;14.874;2022-07-29T05:21:52;6.15;;;4.10;;
66546;SDS011;53400;50.364;14.874;2022-07-29T05:24:19;1999.90;;;999.90;;
66546;SDS011;53400;50.364;14.874;2022-07-29T05:26:45;1999.90;;;999.90;;
66546;SDS011;53400;50.364;14.874;2022-07-29T05:29:11;1999.90;;;999.90;;
66546;SDS011;53400;50.364;14.874;2022-07-29T05:31:37;1999.90;;;999.90;;
66546;SDS011;53400;50.364;14.874;2022-07-29T05:34:02;1999.90;;;999.90;;
66546;SDS011;53400;50.364;14.874;2022-07-29T05:36:29;1999.90;;;999.90;;
66546;SDS011;53400;50.364;14.874;2022-07-29T05:38:54;1999.90;;;999.90;;
66546;SDS011;53400;50.364;14.874;2022-07-29T05:41:21;1999.90;;;999.90;;
66546;SDS011;53400;50.364;14.874;2022-07-29T05:43:47;1999.90;;;999.90;;
66546;SDS011;53400;50.364;14.874;2022-07-29T05:46:13;1999.90;;;999.90;;
66546;SDS011;53400;50.364;14.874;2022-07-29T05:48:39;1999.90;;;999.90;;
66546;SDS011;53400;50.364;14.874;2022-07-29T05:51:05;1999.90;;;999.90;;
66546;SDS011;53400;50.364;14.874;2022-07-29T05:53:31;1999.90;;;999.90;;
66546;SDS011;53400;50.364;14.874;2022-07-29T05:55:57;1999.90;;;999.90;;
66546;SDS011;53400;50.364;14.874;2022-07-29T05:58:24;1999.90;;;999.90;;
66546;SDS011;53400;50.364;14.874;2022-07-29T06:00:50;1999.90;;;999.90;;
66546;SDS011;53400;50.364;14.874;2022-07-29T06:03:16;1999.90;;;999.90;;
66546;SDS011;53400;50.364;14.874;2022-07-29T06:05:41;1999.90;;;999.90;;
66546;SDS011;53400;50.364;14.874;2022-07-29T06:08:07;1999.90;;;999.90;;
66546;SDS011;53400;50.364;14.874;2022-07-29T06:10:34;1999.90;;;999.90;;
66546;SDS011;53400;50.364;14.874;2022-07-29T06:13:00;1999.90;;;999.90;;
66546;SDS011;53400;50.364;14.874;2022-07-29T06:15:28;1999.90;;;999.90;;
66546;SDS011;53400;50.364;14.874;2022-07-29T06:17:53;1999.90;;;999.90;;
66546;SDS011;53400;50.364;14.874;2022-07-29T06:20:19;1999.90;;;999.90;;
66546;SDS011;53400;50.364;14.874;2022-07-29T06:22:45;1999.90;;;999.90;;
66546;SDS011;53400;50.364;14.874;2022-07-29T06:25:11;1999.90;;;999.90;;
66546;SDS011;53400;50.364;14.874;2022-07-29T06:27:37;1999.90;;;999.90;;
66546;SDS011;53400;50.364;14.874;2022-07-29T06:30:03;1999.90;;;999.90;;
66546;SDS011;53400;50.364;14.874;2022-07-29T06:32:33;1999.90;;;999.90;;
66546;SDS011;53400;50.364;14.874;2022-07-29T06:35:01;1999.90;;;999.90;;
66546;SDS011;53400;50.364;14.874;2022-07-29T06:37:26;1999.90;;;999.90;;
66546;SDS011;53400;50.364;14.874;2022-07-29T06:39:52;1999.90;;;999.90;;
66546;SDS011;53400;50.364;14.874;2022-07-29T06:42:41;1999.90;;;999.90;;
66546;SDS011;53400;50.364;14.874;2022-07-29T06:45:07;1999.90;;;999.90;;
66546;SDS011;53400;50.364;14.874;2022-07-29T06:47:35;1999.90;;;999.90;;
66546;SDS011;53400;50.364;14.874;2022-07-29T06:50:01;1999.90;;;999.90;;
66546;SDS011;53400;50.364;14.874;2022-07-29T06:52:26;1999.90;;;999.90;;
66546;SDS011;53400;50.364;14.874;2022-07-29T06:54:52;1999.90;;;999.90;;
66546;SDS011;53400;50.364;14.874;2022-07-29T06:57:20;1999.90;;;999.90;;
66546;SDS011;53400;50.364;14.874;2022-07-29T06:59:46;1999.90;;;999.90;;
66546;SDS011;53400;50.364;14.874;2022-07-29T07:02:12;1999.90;;;999.90;;
66546;SDS011;53400;50.364;14.874;2022-07-29T07:04:39;1999.90;;;999.90;;
66546;SDS011;53400;50.364;14.874;2022-07-29T07:07:05;1999.90;;;999.90;;
66546;SDS011;53400;50.364;14.874;2022-07-29T07:09:31;1999.90;;;999.90;;
66546;SDS011;53400;50.364;14.874;2022-07-29T07:11:57;1999.90;;;999.90;;
66546;SDS011;53400;50.364;14.874;2022-07-29T07:14:23;1999.90;;;999.90;;
66546;SDS011;53400;50.364;14.874;2022-07-29T07:16:48;1999.90;;;999.90;;
66546;SDS011;53400;50.364;14.874;2022-07-29T07:19:14;1999.90;;;999.90;;
66546;SDS011;53400;50.364;14.874;2022-07-29T07:21:42;1999.90;;;999.90;;
66546;SDS011;53400;50.364;14.874;2022-07-29T07:24:08;1999.90;;;999.90;;
66546;SDS011;53400;50.364;14.874;2022-07-29T07:26:34;1999.90;;;999.90;;
66546;SDS011;53400;50.364;14.874;2022-07-29T07:28:59;1999.90;;;999.90;;
66546;SDS011;53400;50.364;14.874;2022-07-29T07:31:25;1999.90;;;999.90;;
66546;SDS011;53400;50.364;14.874;2022-07-29T07:33:51;1999.90;;;999.90;;
66546;SDS011;53400;50.364;14.874;2022-07-29T07:36:18;165.35;;;133.50;;
66546;SDS011;53400;50.364;14.874;2022-07-29T07:38:46;1999.90;;;999.90;;
66546;SDS011;53400;50.364;14.874;2022-07-29T07:41:12;1999.90;;;999.90;;
66546;SDS011;53400;50.364;14.874;2022-07-29T07:43:37;1999.90;;;999.90;;
66546;SDS011;53400;50.364;14.874;2022-07-29T07:46:03;1999.90;;;999.90;;
66546;SDS011;53400;50.364;14.874;2022-07-29T07:48:30;1999.90;;;999.90;;
66546;SDS011;53400;50.364;14.874;2022-07-29T07:50:55;1999.90;;;999.90;;
66546;SDS011;53400;50.364;14.874;2022-07-29T07:53:21;1999.90;;;999.90;;
66546;SDS011;53400;50.364;14.874;2022-07-29T07:55:49;1999.90;;;999.90;;
66546;SDS011;53400;50.364;14.874;2022-07-29T07:58:14;1999.90;;;999.90;;
66546;SDS011;53400;50.364;14.874;2022-07-29T08:00:40;1999.90;;;999.90;;
66546;SDS011;53400;50.364;14.874;2022-07-29T08:03:06;1999.90;;;999.90;;
66546;SDS011;53400;50.364;14.874;2022-07-29T08:05:33;1999.90;;;999.90;;
66546;SDS011;53400;50.364;14.874;2022-07-29T08:07:59;1999.90;;;999.90;;
66546;SDS011;53400;50.364;14.874;2022-07-29T08:10:25;1999.90;;;999.90;;
66546;SDS011;53400;50.364;14.874;2022-07-29T08:13:11;1999.90;;;999.90;;
66546;SDS011;53400;50.364;14.874;2022-07-29T08:15:38;1999.90;;;999.90;;
66546;SDS011;53400;50.364;14.874;2022-07-29T08:18:04;1999.90;;;999.90;;
66546;SDS011;53400;50.364;14.874;2022-07-29T08:20:31;1999.90;;;999.90;;
66546;SDS011;53400;50.364;14.874;2022-07-29T08:22:59;1999.90;;;999.90;;
66546;SDS011;53400;50.364;14.874;2022-07-29T08:25:25;1999.90;;;999.90;;
66546;SDS011;53400;50.364;14.874;2022-07-29T08:27:50;1999.90;;;999.90;;
66546;SDS011;53400;50.364;14.874;2022-07-29T08:30:18;1999.90;;;999.90;;
66546;SDS011;53400;50.364;14.874;2022-07-29T08:32:44;1999.90;;;999.90;;
66546;SDS011;53400;50.364;14.874;2022-07-29T08:35:09;1999.90;;;999.90;;
66546;SDS011;53400;50.364;14.874;2022-07-29T08:37:35;1999.90;;;999.90;;
66546;SDS011;53400;50.364;14.874;2022-07-29T08:40:01;1999.90;;;999.90;;
66546;SDS011;53400;50.364;14.874;2022-07-29T08:42:27;1999.90;;;999.90;;
66546;SDS011;53400;50.364;14.874;2022-07-29T08:44:54;1999.90;;;999.90;;
66546;SDS011;53400;50.364;14.874;2022-07-29T08:47:21;1999.90;;;999.90;;
66546;SDS011;53400;50.364;14.874;2022-07-29T08:49:48;1999.90;;;999.90;;
66546;SDS011;53400;50.364;14.874;2022-07-29T08:52:15;1999.90;;;999.90;;
66546;SDS011;53400;50.364;14.874;2022-07-29T08:54:43;1999.90;;;999.90;;
66546;SDS011;53400;50.364;14.874;2022-07-29T08:57:09;1999.90;;;999.90;;
66546;SDS011;53400;50.364;14.874;2022-07-29T08:59:37;1999.90;;;999.90;;
66546;SDS011;53400;50.364;14.874;2022-07-29T09:02:07;1999.90;;;999.90;;
66546;SDS011;53400;50.364;14.874;2022-07-29T09:04:42;1999.90;;;999.90;;
66546;SDS011;53400;50.364;14.874;2022-07-29T09:07:08;1999.90;;;999.90;;
66546;SDS011;53400;50.364;14.874;2022-07-29T09:09:34;1999.90;;;999.90;;
66546;SDS011;53400;50.364;14.874;2022-07-29T09:12:01;1999.90;;;999.90;;
66546;SDS011;53400;50.364;14.874;2022-07-29T09:14:29;1999.90;;;999.90;;
66546;SDS011;53400;50.364;14.874;2022-07-29T09:16:55;1999.90;;;999.90;;
66546;SDS011;53400;50.364;14.874;2022-07-29T09:19:26;1999.90;;;999.90;;
66546;SDS011;53400;50.364;14.874;2022-07-29T09:21:55;1999.90;;;999.90;;
66546;SDS011;53400;50.364;14.874;2022-07-29T09:24:26;1506.60;;;756.33;;
66546;SDS011;53400;50.364;14.874;2022-07-29T09:27:02;1999.90;;;999.90;;
66546;SDS011;53400;50.364;14.874;2022-07-29T09:29:34;1999.90;;;999.90;;
66546;SDS011;53400;50.364;14.874;2022-07-29T09:32:00;1999.90;;;999.90;;
66546;SDS011;53400;50.364;14.874;2022-07-29T09:34:31;1999.90;;;999.90;;
66546;SDS011;53400;50.364;14.874;2022-07-29T09:36:58;1999.90;;;999.90;;
66546;SDS011;53400;50.364;14.874;2022-07-29T09:39:27;1999.90;;;999.90;;
66546;SDS011;53400;50.364;14.874;2022-07-29T09:41:55;1999.90;;;999.90;;
66546;SDS011;53400;50.364;14.874;2022-07-29T09:44:23;1999.90;;;999.90;;
66546;SDS011;53400;50.364;14.874;2022-07-29T09:46:56;1999.90;;;999.90;;
66546;SDS011;53400;50.364;14.874;2022-07-29T09:49:23;1999.90;;;999.90;;
66546;SDS011;53400;50.364;14.874;2022-07-29T09:52:00;1999.90;;;999.90;;
66546;SDS011;53400;50.364;14.874;2022-07-29T09:54:28;1999.90;;;999.90;;
66546;SDS011;53400;50.364;14.874;2022-07-29T09:56:59;1999.90;;;999.90;;
66546;SDS011;53400;50.364;14.874;2022-07-29T09:59:25;1999.90;;;999.90;;
66546;SDS011;53400;50.364;14.874;2022-07-29T10:01:52;1999.90;;;999.90;;
66546;SDS011;53400;50.364;14.874;2022-07-29T10:04:18;1999.90;;;999.90;;
66546;SDS011;53400;50.364;14.874;2022-07-29T10:06:57;1999.90;;;999.90;;
66546;SDS011;53400;50.364;14.874;2022-07-29T10:09:26;1999.90;;;999.90;;
66546;SDS011;53400;50.364;14.874;2022-07-29T10:12:05;1999.90;;;999.90;;
66546;SDS011;53400;50.364;14.874;2022-07-29T10:14:33;1999.90;;;999.90;;
66546;SDS011;53400;50.364;14.874;2022-07-29T10:17:00;1999.90;;;999.90;;
66546;SDS011;53400;50.364;14.874;2022-07-29T10:19:26;1999.90;;;999.90;;
66546;SDS011;53400;50.364;14.874;2022-07-29T10:21:55;1999.90;;;999.90;;
66546;SDS011;53400;50.364;14.874;2022-07-29T10:24:22;1999.90;;;999.90;;
66546;SDS011;53400;50.364;14.874;2022-07-29T10:26:50;1999.90;;;999.90;;
66546;SDS011;53400;50.364;14.874;2022-07-29T10:29:17;1999.90;;;999.90;;
66546;SDS011;53400;50.364;14.874;2022-07-29T10:31:43;1999.90;;;999.90;;
66546;SDS011;53400;50.364;14.874;2022-07-29T10:34:18;1999.90;;;999.90;;
66546;SDS011;53400;50.364;14.874;2022-07-29T10:36:59;1999.90;;;999.90;;
66546;SDS011;53400;50.364;14.874;2022-07-29T10:39:36;1999.90;;;999.90;;
66546;SDS011;53400;50.364;14.874;2022-07-29T10:42:15;1999.90;;;999.90;;
66546;SDS011;53400;50.364;14.874;2022-07-29T10:44:43;1999.90;;;999.90;;
66546;SDS011;53400;50.364;14.874;2022-07-29T10:47:19;1999.90;;;999.90;;
66546;SDS011;53400;50.364;14.874;2022-07-29T10:49:54;1999.90;;;999.90;;
66546;SDS011;53400;50.364;14.874;2022-07-29T10:52:22;1999.90;;;999.90;;
66546;SDS011;53400;50.364;14.874;2022-07-29T10:54:51;1999.90;;;999.90;;
66546;SDS011;53400;50.364;14.874;2022-07-29T10:57:20;1999.90;;;999.90;;
66546;SDS011;53400;50.364;14.874;2022-07-29T10:59:48;1999.90;;;999.90;;
66546;SDS011;53400;50.364;14.874;2022-07-29T11:05:17;1999.90;;;999.90;;
66546;SDS011;53400;50.364;14.874;2022-07-29T11:10:52;1999.90;;;999.90;;
66546;SDS011;53400;50.364;14.874;2022-07-29T11:13:46;1999.90;;;999.90;;
66546;SDS011;53400;50.364;14.874;2022-07-29T11:16:18;1999.90;;;999.90;;
66546;SDS011;53400;50.364;14.874;2022-07-29T11:21:47;1999.90;;;999.90;;
66546;SDS011;53400;50.364;14.874;2022-07-29T11:24:15;1999.90;;;999.90;;
66546;SDS011;53400;50.364;14.874;2022-07-29T11:26:43;1999.90;;;999.90;;
66546;SDS011;53400;50.364;14.874;2022-07-29T11:29:18;1999.90;;;999.90;;
66546;SDS011;53400;50.364;14.874;2022-07-29T11:31:48;1999.90;;;999.90;;
66546;SDS011;53400;50.364;14.874;2022-07-29T11:34:20;1999.90;;;999.90;;
66546;SDS011;53400;50.364;14.874;2022-07-29T11:39:43;1999.90;;;999.90;;
66546;SDS011;53400;50.364;14.874;2022-07-29T11:45:06;1999.90;;;999.90;;
66546;SDS011;53400;50.364;14.874;2022-07-29T11:47:39;1999.90;;;999.90;;
66546;SDS011;53400;50.364;14.874;2022-07-29T11:50:07;1999.90;;;999.90;;
66546;SDS011;53400;50.364;14.874;2022-07-29T11:52:35;1999.90;;;999.90;;
66546;SDS011;53400;50.364;14.874;2022-07-29T11:55:09;1999.90;;;999.90;;
66546;SDS011;53400;50.364;14.874;2022-07-29T11:57:37;1999.90;;;999.90;;
66546;SDS011;53400;50.364;14.874;2022-07-29T12:00:12;1999.90;;;999.90;;
66546;SDS011;53400;50.364;14.874;2022-07-29T12:02:47;1999.90;;;999.90;;
66546;SDS011;53400;50.364;14.874;2022-07-29T12:05:12;1999.90;;;999.90;;
66546;SDS011;53400;50.364;14.874;2022-07-29T12:07:38;1999.90;;;999.90;;
66546;SDS011;53400;50.364;14.874;2022-07-29T12:10:05;1999.90;;;999.90;;
66546;SDS011;53400;50.364;14.874;2022-07-29T12:12:32;1999.90;;;999.90;;
66546;SDS011;53400;50.364;14.874;2022-07-29T12:15:02;1999.90;;;999.90;;
66546;SDS011;53400;50.364;14.874;2022-07-29T12:17:38;1999.90;;;999.90;;
66546;SDS011;53400;50.364;14.874;2022-07-29T12:20:04;1999.90;;;999.90;;
66546;SDS011;53400;50.364;14.874;2022-07-29T12:22:31;1999.90;;;999.90;;
66546;SDS011;53400;50.364;14.874;2022-07-29T12:25:00;1999.90;;;999.90;;
66546;SDS011;53400;50.364;14.874;2022-07-29T12:27:27;1999.90;;;999.90;;
66546;SDS011;53400;50.364;14.874;2022-07-29T12:29:57;1999.90;;;999.90;;
66546;SDS011;53400;50.364;14.874;2022-07-29T12:32:31;1999.90;;;999.90;;
66546;SDS011;53400;50.364;14.874;2022-07-29T12:34:59;1999.90;;;999.90;;
66546;SDS011;53400;50.364;14.874;2022-07-29T12:37:27;1999.90;;;999.90;;
66546;SDS011;53400;50.364;14.874;2022-07-29T12:39:53;1999.90;;;999.90;;
66546;SDS011;53400;50.364;14.874;2022-07-29T12:42:19;1999.90;;;999.90;;
66546;SDS011;53400;50.364;14.874;2022-07-29T12:44:45;1999.90;;;999.90;;
66546;SDS011;53400;50.364;14.874;2022-07-29T12:47:12;1999.90;;;999.90;;
66546;SDS011;53400;50.364;14.874;2022-07-29T12:49:39;1999.90;;;999.90;;
66546;SDS011;53400;50.364;14.874;2022-07-29T12:54:49;1999.90;;;999.90;;
66546;SDS011;53400;50.364;14.874;2022-07-29T12:57:15;1999.90;;;999.90;;
66546;SDS011;53400;50.364;14.874;2022-07-29T12:59:41;1999.90;;;999.90;;
66546;SDS011;53400;50.364;14.874;2022-07-29T13:02:19;1999.90;;;999.90;;
66546;SDS011;53400;50.364;14.874;2022-07-29T13:04:54;1999.90;;;999.90;;
66546;SDS011;53400;50.364;14.874;2022-07-29T13:07:24;1999.90;;;999.90;;
66546;SDS011;53400;50.364;14.874;2022-07-29T13:09:52;1999.90;;;999.90;;
66546;SDS011;53400;50.364;14.874;2022-07-29T13:12:18;1999.90;;;999.90;;
66546;SDS011;53400;50.364;14.874;2022-07-29T13:14:44;1999.90;;;999.90;;
66546;SDS011;53400;50.364;14.874;2022-07-29T13:17:12;36.67;;;34.88;;
66546;SDS011;53400;50.364;14.874;2022-07-29T13:19:41;1999.90;;;999.90;;
66546;SDS011;53400;50.364;14.874;2022-07-29T13:22:10;1999.90;;;999.90;;
66546;SDS011;53400;50.364;14.874;2022-07-29T13:24:50;1999.90;;;999.90;;
66546;SDS011;53400;50.364;14.874;2022-07-29T13:27:17;1999.90;;;999.90;;
66546;SDS011;53400;50.364;14.874;2022-07-29T13:29:44;1999.90;;;999.90;;
66546;SDS011;53400;50.364;14.874;2022-07-29T13:32:09;1999.90;;;999.90;;
66546;SDS011;53400;50.364;14.874;2022-07-29T13:34:36;1999.90;;;999.90;;
66546;SDS011;53400;50.364;14.874;2022-07-29T13:37:02;1999.90;;;999.90;;
66546;SDS011;53400;50.364;14.874;2022-07-29T13:39:29;1999.90;;;999.90;;
66546;SDS011;53400;50.364;14.874;2022-07-29T13:41:55;1999.90;;;999.90;;
66546;SDS011;53400;50.364;14.874;2022-07-29T13:44:21;1999.90;;;999.90;;
66546;SDS011;53400;50.364;14.874;2022-07-29T13:46:47;1999.90;;;999.90;;
66546;SDS011;53400;50.364;14.874;2022-07-29T13:49:13;1999.90;;;999.90;;
66546;SDS011;53400;50.364;14.874;2022-07-29T13:51:39;1999.90;;;999.90;;
66546;SDS011;53400;50.364;14.874;2022-07-29T13:54:05;1999.90;;;999.90;;
66546;SDS011;53400;50.364;14.874;2022-07-29T13:56:32;31.27;;;7.63;;